sensor_id;sensor_type;location;lat;lon;timestamp;P1;durP1;ratioP1;P2;durP2;ratioP2
47749;SDS011;49810;48.160;10.812;2023-08-24T00:01:13;9.85;;;7.32;;
47749;SDS011;49810;48.160;10.812;2023-08-24T00:03:43;9.88;;;7.10;;
47749;SDS011;49810;48.160;10.812;2023-08-24T00:06:13;11.13;;;7.13;;
47749;SDS011;49810;48.160;10.812;2023-08-24T00:08:41;11.93;;;6.85;;
47749;SDS011;49810;48.160;10.812;2023-08-24T00:11:10;9.52;;;6.95;;
47749;SDS011;49810;48.160;10.812;2023-08-24T00:13:41;13.18;;;6.88;;
47749;SDS011;49810;48.160;10.812;2023-08-24T00:16:14;12.15;;;6.45;;
47749;SDS011;49810;48.160;10.812;2023-08-24T00:18:42;10.07;;;7.20;;
47749;SDS011;49810;48.160;10.812;2023-08-24T00:21:10;12.98;;;7.90;;
47749;SDS011;49810;48.160;10.812;2023-08-24T00:23:38;12.73;;;6.82;;
47749;SDS011;49810;48.160;10.812;2023-08-24T00:26:06;10.05;;;7.45;;
47749;SDS011;49810;48.160;10.812;2023-08-24T00:28:34;9.63;;;7.00;;
47749;SDS011;49810;48.160;10.812;2023-08-24T00:31:01;11.18;;;6.95;;
47749;SDS011;49810;48.160;10.812;2023-08-24T00:33:31;11.65;;;7.18;;
47749;SDS011;49810;48.160;10.812;2023-08-24T00:35:59;9.43;;;6.88;;
47749;SDS011;49810;48.160;10.812;2023-08-24T00:38:28;10.77;;;7.18;;
47749;SDS011;49810;48.160;10.812;2023-08-24T00:40:57;9.93;;;7.20;;
47749;SDS011;49810;48.160;10.812;2023-08-24T00:43:25;10.13;;;7.43;;
47749;SDS011;49810;48.160;10.812;2023-08-24T00:45:53;11.32;;;7.57;;
47749;SDS011;49810;48.160;10.812;2023-08-24T00:48:23;12.40;;;7.85;;
47749;SDS011;49810;48.160;10.812;2023-08-24T00:50:55;10.63;;;7.32;;
47749;SDS011;49810;48.160;10.812;2023-08-24T00:53:23;10.02;;;7.97;;
47749;SDS011;49810;48.160;10.812;2023-08-24T00:55:52;12.52;;;7.50;;
47749;SDS011;49810;48.160;10.812;2023-08-24T00:58:21;11.32;;;8.10;;
47749;SDS011;49810;48.160;10.812;2023-08-24T01:00:50;10.55;;;7.95;;
47749;SDS011;49810;48.160;10.812;2023-08-24T01:03:21;13.27;;;7.53;;
47749;SDS011;49810;48.160;10.812;2023-08-24T01:05:50;10.02;;;7.50;;
47749;SDS011;49810;48.160;10.812;2023-08-24T01:08:20;13.43;;;8.05;;
47749;SDS011;49810;48.160;10.812;2023-08-24T01:10:52;12.50;;;8.10;;
47749;SDS011;49810;48.160;10.812;2023-08-24T01:13:27;10.60;;;8.35;;
47749;SDS011;49810;48.160;10.812;2023-08-24T01:15:59;13.25;;;8.20;;
47749;SDS011;49810;48.160;10.812;2023-08-24T01:18:28;11.18;;;8.40;;
47749;SDS011;49810;48.160;10.812;2023-08-24T01:20:57;13.52;;;8.18;;
47749;SDS011;49810;48.160;10.812;2023-08-24T01:23:31;10.68;;;8.13;;
47749;SDS011;49810;48.160;10.812;2023-08-24T01:28:29;13.18;;;8.85;;
47749;SDS011;49810;48.160;10.812;2023-08-24T01:30:59;13.70;;;9.70;;
47749;SDS011;49810;48.160;10.812;2023-08-24T01:33:27;11.18;;;9.38;;
47749;SDS011;49810;48.160;10.812;2023-08-24T01:35:55;18.55;;;10.07;;
47749;SDS011;49810;48.160;10.812;2023-08-24T01:38:23;13.57;;;10.45;;
47749;SDS011;49810;48.160;10.812;2023-08-24T01:40:52;14.95;;;11.07;;
47749;SDS011;49810;48.160;10.812;2023-08-24T01:43:21;16.10;;;10.32;;
47749;SDS011;49810;48.160;10.812;2023-08-24T01:46:11;12.52;;;9.77;;
47749;SDS011;49810;48.160;10.812;2023-08-24T01:48:40;12.38;;;9.60;;
47749;SDS011;49810;48.160;10.812;2023-08-24T01:51:08;13.75;;;9.70;;
47749;SDS011;49810;48.160;10.812;2023-08-24T01:53:37;20.33;;;9.38;;
47749;SDS011;49810;48.160;10.812;2023-08-24T01:56:08;11.93;;;9.10;;
47749;SDS011;49810;48.160;10.812;2023-08-24T01:58:35;13.52;;;9.20;;
47749;SDS011;49810;48.160;10.812;2023-08-24T02:01:04;14.73;;;9.07;;
47749;SDS011;49810;48.160;10.812;2023-08-24T02:03:33;11.98;;;9.43;;
47749;SDS011;49810;48.160;10.812;2023-08-24T02:06:01;15.38;;;9.50;;
47749;SDS011;49810;48.160;10.812;2023-08-24T02:08:31;14.88;;;9.23;;
47749;SDS011;49810;48.160;10.812;2023-08-24T02:11:02;12.45;;;9.55;;
47749;SDS011;49810;48.160;10.812;2023-08-24T02:13:31;12.05;;;9.43;;
47749;SDS011;49810;48.160;10.812;2023-08-24T02:16:03;12.02;;;9.35;;
47749;SDS011;49810;48.160;10.812;2023-08-24T02:18:31;15.48;;;10.35;;
47749;SDS011;49810;48.160;10.812;2023-08-24T02:21:01;17.98;;;10.23;;
47749;SDS011;49810;48.160;10.812;2023-08-24T02:23:34;14.93;;;10.18;;
47749;SDS011;49810;48.160;10.812;2023-08-24T02:26:02;13.50;;;9.80;;
47749;SDS011;49810;48.160;10.812;2023-08-24T02:28:30;17.70;;;10.38;;
47749;SDS011;49810;48.160;10.812;2023-08-24T02:30:59;18.00;;;10.32;;
47749;SDS011;49810;48.160;10.812;2023-08-24T02:33:27;16.08;;;10.15;;
47749;SDS011;49810;48.160;10.812;2023-08-24T02:35:56;14.88;;;10.35;;
47749;SDS011;49810;48.160;10.812;2023-08-24T02:38:25;15.32;;;11.38;;
47749;SDS011;49810;48.160;10.812;2023-08-24T02:40:59;14.77;;;10.15;;
47749;SDS011;49810;48.160;10.812;2023-08-24T02:43:29;16.85;;;10.77;;
47749;SDS011;49810;48.160;10.812;2023-08-24T02:46:00;19.65;;;11.45;;
47749;SDS011;49810;48.160;10.812;2023-08-24T02:48:30;14.95;;;10.82;;
47749;SDS011;49810;48.160;10.812;2023-08-24T02:50:58;15.63;;;12.48;;
47749;SDS011;49810;48.160;10.812;2023-08-24T02:53:27;18.10;;;11.63;;
47749;SDS011;49810;48.160;10.812;2023-08-24T02:55:55;22.30;;;12.27;;
47749;SDS011;49810;48.160;10.812;2023-08-24T02:58:23;17.50;;;12.20;;
47749;SDS011;49810;48.160;10.812;2023-08-24T03:00:52;15.10;;;11.65;;
47749;SDS011;49810;48.160;10.812;2023-08-24T03:03:20;18.05;;;12.23;;
47749;SDS011;49810;48.160;10.812;2023-08-24T03:05:54;15.88;;;11.55;;
47749;SDS011;49810;48.160;10.812;2023-08-24T03:08:22;14.82;;;11.00;;
47749;SDS011;49810;48.160;10.812;2023-08-24T03:10:52;19.98;;;12.73;;
47749;SDS011;49810;48.160;10.812;2023-08-24T03:13:20;15.70;;;12.57;;
47749;SDS011;49810;48.160;10.812;2023-08-24T03:15:48;18.20;;;12.10;;
47749;SDS011;49810;48.160;10.812;2023-08-24T03:18:16;17.55;;;12.57;;
47749;SDS011;49810;48.160;10.812;2023-08-24T03:20:44;15.57;;;11.00;;
47749;SDS011;49810;48.160;10.812;2023-08-24T03:23:14;14.80;;;11.30;;
47749;SDS011;49810;48.160;10.812;2023-08-24T03:25:42;19.60;;;12.65;;
47749;SDS011;49810;48.160;10.812;2023-08-24T03:28:11;15.57;;;11.77;;
47749;SDS011;49810;48.160;10.812;2023-08-24T03:30:46;16.83;;;13.00;;
47749;SDS011;49810;48.160;10.812;2023-08-24T03:33:15;17.48;;;12.77;;
47749;SDS011;49810;48.160;10.812;2023-08-24T03:35:43;17.17;;;12.38;;
47749;SDS011;49810;48.160;10.812;2023-08-24T03:38:11;16.02;;;12.27;;
47749;SDS011;49810;48.160;10.812;2023-08-24T03:40:39;14.48;;;12.20;;
47749;SDS011;49810;48.160;10.812;2023-08-24T03:43:07;17.15;;;11.35;;
47749;SDS011;49810;48.160;10.812;2023-08-24T03:45:36;18.15;;;12.43;;
47749;SDS011;49810;48.160;10.812;2023-08-24T03:48:05;17.27;;;12.27;;
47749;SDS011;49810;48.160;10.812;2023-08-24T03:50:33;13.43;;;11.95;;
47749;SDS011;49810;48.160;10.812;2023-08-24T03:53:01;13.02;;;11.57;;
47749;SDS011;49810;48.160;10.812;2023-08-24T03:55:29;18.23;;;12.10;;
47749;SDS011;49810;48.160;10.812;2023-08-24T03:57:58;15.43;;;11.27;;
47749;SDS011;49810;48.160;10.812;2023-08-24T04:00:26;16.42;;;12.32;;
47749;SDS011;49810;48.160;10.812;2023-08-24T04:02:55;15.90;;;11.88;;
47749;SDS011;49810;48.160;10.812;2023-08-24T04:05:25;16.48;;;12.02;;
47749;SDS011;49810;48.160;10.812;2023-08-24T04:07:54;17.10;;;12.90;;
47749;SDS011;49810;48.160;10.812;2023-08-24T04:10:24;16.45;;;12.02;;
47749;SDS011;49810;48.160;10.812;2023-08-24T04:12:52;16.05;;;12.05;;
47749;SDS011;49810;48.160;10.812;2023-08-24T04:15:20;17.75;;;12.50;;
47749;SDS011;49810;48.160;10.812;2023-08-24T04:17:49;21.05;;;12.73;;
47749;SDS011;49810;48.160;10.812;2023-08-24T04:20:20;15.02;;;13.35;;
47749;SDS011;49810;48.160;10.812;2023-08-24T04:22:48;14.55;;;13.07;;
47749;SDS011;49810;48.160;10.812;2023-08-24T04:25:15;18.48;;;13.45;;
47749;SDS011;49810;48.160;10.812;2023-08-24T04:27:43;16.50;;;12.80;;
47749;SDS011;49810;48.160;10.812;2023-08-24T04:30:11;16.73;;;13.38;;
47749;SDS011;49810;48.160;10.812;2023-08-24T04:32:40;15.75;;;14.05;;
47749;SDS011;49810;48.160;10.812;2023-08-24T04:35:08;20.75;;;15.55;;
47749;SDS011;49810;48.160;10.812;2023-08-24T04:37:38;21.92;;;14.18;;
47749;SDS011;49810;48.160;10.812;2023-08-24T04:40:06;20.23;;;15.00;;
47749;SDS011;49810;48.160;10.812;2023-08-24T04:42:34;24.73;;;15.10;;
47749;SDS011;49810;48.160;10.812;2023-08-24T04:45:02;17.60;;;15.75;;
47749;SDS011;49810;48.160;10.812;2023-08-24T04:47:30;19.67;;;15.23;;
47749;SDS011;49810;48.160;10.812;2023-08-24T04:49:58;23.25;;;15.07;;
47749;SDS011;49810;48.160;10.812;2023-08-24T04:52:26;20.90;;;14.75;;
47749;SDS011;49810;48.160;10.812;2023-08-24T04:54:56;18.85;;;13.45;;
47749;SDS011;49810;48.160;10.812;2023-08-24T04:57:26;22.63;;;13.75;;
47749;SDS011;49810;48.160;10.812;2023-08-24T04:59:54;19.60;;;14.38;;
47749;SDS011;49810;48.160;10.812;2023-08-24T05:02:22;19.35;;;13.05;;
47749;SDS011;49810;48.160;10.812;2023-08-24T05:04:50;19.83;;;13.95;;
47749;SDS011;49810;48.160;10.812;2023-08-24T05:07:18;24.77;;;15.23;;
47749;SDS011;49810;48.160;10.812;2023-08-24T05:09:46;19.60;;;14.77;;
47749;SDS011;49810;48.160;10.812;2023-08-24T05:12:15;21.05;;;15.20;;
47749;SDS011;49810;48.160;10.812;2023-08-24T05:14:43;22.15;;;16.70;;
47749;SDS011;49810;48.160;10.812;2023-08-24T05:17:11;22.23;;;18.83;;
47749;SDS011;49810;48.160;10.812;2023-08-24T05:19:39;26.20;;;18.80;;
47749;SDS011;49810;48.160;10.812;2023-08-24T05:22:07;23.50;;;20.73;;
47749;SDS011;49810;48.160;10.812;2023-08-24T05:24:35;27.50;;;19.85;;
47749;SDS011;49810;48.160;10.812;2023-08-24T05:27:03;24.17;;;20.70;;
47749;SDS011;49810;48.160;10.812;2023-08-24T05:29:32;22.83;;;20.35;;
47749;SDS011;49810;48.160;10.812;2023-08-24T05:32:00;23.58;;;20.58;;
47749;SDS011;49810;48.160;10.812;2023-08-24T05:34:29;29.08;;;19.33;;
47749;SDS011;49810;48.160;10.812;2023-08-24T05:36:56;25.33;;;20.80;;
47749;SDS011;49810;48.160;10.812;2023-08-24T05:39:24;26.90;;;19.50;;
47749;SDS011;49810;48.160;10.812;2023-08-24T05:41:52;23.33;;;19.35;;
47749;SDS011;49810;48.160;10.812;2023-08-24T05:44:20;22.15;;;18.85;;
47749;SDS011;49810;48.160;10.812;2023-08-24T05:46:52;25.88;;;17.35;;
47749;SDS011;49810;48.160;10.812;2023-08-24T05:49:20;17.88;;;15.95;;
47749;SDS011;49810;48.160;10.812;2023-08-24T05:51:49;18.95;;;16.95;;
47749;SDS011;49810;48.160;10.812;2023-08-24T05:54:17;19.38;;;15.93;;
47749;SDS011;49810;48.160;10.812;2023-08-24T05:56:46;22.02;;;16.27;;
47749;SDS011;49810;48.160;10.812;2023-08-24T05:59:14;23.83;;;15.30;;
47749;SDS011;49810;48.160;10.812;2023-08-24T06:01:42;20.10;;;15.30;;
47749;SDS011;49810;48.160;10.812;2023-08-24T06:04:12;20.80;;;14.52;;
47749;SDS011;49810;48.160;10.812;2023-08-24T06:06:39;21.25;;;14.40;;
47749;SDS011;49810;48.160;10.812;2023-08-24T06:09:07;20.30;;;14.48;;
47749;SDS011;49810;48.160;10.812;2023-08-24T06:11:36;20.95;;;13.40;;
47749;SDS011;49810;48.160;10.812;2023-08-24T06:14:04;16.38;;;13.30;;
47749;SDS011;49810;48.160;10.812;2023-08-24T06:16:32;16.25;;;12.75;;
47749;SDS011;49810;48.160;10.812;2023-08-24T06:19:00;14.68;;;12.45;;
47749;SDS011;49810;48.160;10.812;2023-08-24T06:21:29;16.90;;;12.65;;
47749;SDS011;49810;48.160;10.812;2023-08-24T06:23:57;18.02;;;12.05;;
47749;SDS011;49810;48.160;10.812;2023-08-24T06:26:28;15.98;;;12.02;;
47749;SDS011;49810;48.160;10.812;2023-08-24T06:28:56;17.80;;;11.43;;
47749;SDS011;49810;48.160;10.812;2023-08-24T06:31:24;16.45;;;11.15;;
47749;SDS011;49810;48.160;10.812;2023-08-24T06:33:52;16.48;;;11.77;;
47749;SDS011;49810;48.160;10.812;2023-08-24T06:36:20;22.27;;;11.98;;
47749;SDS011;49810;48.160;10.812;2023-08-24T06:38:49;13.75;;;11.00;;
47749;SDS011;49810;48.160;10.812;2023-08-24T06:41:19;18.55;;;11.43;;
47749;SDS011;49810;48.160;10.812;2023-08-24T06:43:47;17.90;;;12.13;;
47749;SDS011;49810;48.160;10.812;2023-08-24T06:46:15;19.40;;;11.35;;
47749;SDS011;49810;48.160;10.812;2023-08-24T06:48:43;20.92;;;11.05;;
47749;SDS011;49810;48.160;10.812;2023-08-24T06:51:12;19.35;;;11.15;;
47749;SDS011;49810;48.160;10.812;2023-08-24T06:53:40;21.52;;;10.98;;
47749;SDS011;49810;48.160;10.812;2023-08-24T06:56:10;17.50;;;10.70;;
47749;SDS011;49810;48.160;10.812;2023-08-24T06:58:38;19.40;;;11.43;;
47749;SDS011;49810;48.160;10.812;2023-08-24T07:01:06;16.92;;;10.32;;
47749;SDS011;49810;48.160;10.812;2023-08-24T07:03:34;20.85;;;10.48;;
47749;SDS011;49810;48.160;10.812;2023-08-24T07:06:02;15.73;;;10.05;;
47749;SDS011;49810;48.160;10.812;2023-08-24T07:08:31;14.52;;;10.45;;
47749;SDS011;49810;48.160;10.812;2023-08-24T07:11:02;17.58;;;10.20;;
47749;SDS011;49810;48.160;10.812;2023-08-24T07:13:31;17.90;;;9.95;;
47749;SDS011;49810;48.160;10.812;2023-08-24T07:15:59;17.35;;;10.60;;
47749;SDS011;49810;48.160;10.812;2023-08-24T07:18:27;17.77;;;9.85;;
47749;SDS011;49810;48.160;10.812;2023-08-24T07:20:55;15.57;;;9.35;;
47749;SDS011;49810;48.160;10.812;2023-08-24T07:23:23;19.20;;;10.35;;
47749;SDS011;49810;48.160;10.812;2023-08-24T07:25:51;17.10;;;10.70;;
47749;SDS011;49810;48.160;10.812;2023-08-24T07:28:19;13.57;;;9.98;;
47749;SDS011;49810;48.160;10.812;2023-08-24T07:30:48;15.80;;;9.23;;
47749;SDS011;49810;48.160;10.812;2023-08-24T07:33:16;12.77;;;9.40;;
47749;SDS011;49810;48.160;10.812;2023-08-24T07:35:44;14.82;;;9.07;;
47749;SDS011;49810;48.160;10.812;2023-08-24T07:38:13;12.43;;;9.50;;
47749;SDS011;49810;48.160;10.812;2023-08-24T07:40:41;14.82;;;9.88;;
47749;SDS011;49810;48.160;10.812;2023-08-24T07:43:09;19.88;;;10.57;;
47749;SDS011;49810;48.160;10.812;2023-08-24T07:45:37;16.67;;;9.38;;
47749;SDS011;49810;48.160;10.812;2023-08-24T07:48:09;22.58;;;9.90;;
47749;SDS011;49810;48.160;10.812;2023-08-24T07:50:38;20.08;;;10.88;;
47749;SDS011;49810;48.160;10.812;2023-08-24T07:53:06;14.43;;;9.52;;
47749;SDS011;49810;48.160;10.812;2023-08-24T07:55:34;13.82;;;9.50;;
47749;SDS011;49810;48.160;10.812;2023-08-24T07:58:03;16.25;;;8.52;;
47749;SDS011;49810;48.160;10.812;2023-08-24T08:00:31;14.18;;;8.98;;
47749;SDS011;49810;48.160;10.812;2023-08-24T08:03:01;11.77;;;8.23;;
47749;SDS011;49810;48.160;10.812;2023-08-24T08:05:31;17.05;;;8.40;;
47749;SDS011;49810;48.160;10.812;2023-08-24T08:07:59;22.65;;;8.88;;
47749;SDS011;49810;48.160;10.812;2023-08-24T08:10:27;14.38;;;8.35;;
47749;SDS011;49810;48.160;10.812;2023-08-24T08:12:55;10.63;;;7.82;;
47749;SDS011;49810;48.160;10.812;2023-08-24T08:15:23;16.60;;;8.65;;
47749;SDS011;49810;48.160;10.812;2023-08-24T08:17:50;79.03;;;13.70;;
47749;SDS011;49810;48.160;10.812;2023-08-24T08:20:19;22.92;;;9.20;;
47749;SDS011;49810;48.160;10.812;2023-08-24T08:22:50;20.83;;;9.55;;
47749;SDS011;49810;48.160;10.812;2023-08-24T08:25:18;13.95;;;8.32;;
47749;SDS011;49810;48.160;10.812;2023-08-24T08:27:50;13.65;;;8.13;;
47749;SDS011;49810;48.160;10.812;2023-08-24T08:30:18;13.88;;;7.80;;
47749;SDS011;49810;48.160;10.812;2023-08-24T08:32:47;15.98;;;8.63;;
47749;SDS011;49810;48.160;10.812;2023-08-24T08:35:15;14.68;;;8.55;;
47749;SDS011;49810;48.160;10.812;2023-08-24T08:37:43;18.70;;;8.95;;
47749;SDS011;49810;48.160;10.812;2023-08-24T08:40:13;16.10;;;7.68;;
47749;SDS011;49810;48.160;10.812;2023-08-24T08:42:41;13.50;;;7.90;;
47749;SDS011;49810;48.160;10.812;2023-08-24T08:45:09;12.55;;;7.38;;
47749;SDS011;49810;48.160;10.812;2023-08-24T08:47:37;14.15;;;8.80;;
47749;SDS011;49810;48.160;10.812;2023-08-24T08:50:08;26.10;;;15.68;;
47749;SDS011;49810;48.160;10.812;2023-08-24T08:52:37;14.15;;;7.78;;
47749;SDS011;49810;48.160;10.812;2023-08-24T08:55:05;12.63;;;7.72;;
47749;SDS011;49810;48.160;10.812;2023-08-24T08:57:38;11.63;;;7.63;;
47749;SDS011;49810;48.160;10.812;2023-08-24T09:00:09;9.50;;;7.38;;
47749;SDS011;49810;48.160;10.812;2023-08-24T09:02:40;12.63;;;7.70;;
47749;SDS011;49810;48.160;10.812;2023-08-24T09:05:10;15.27;;;7.47;;
47749;SDS011;49810;48.160;10.812;2023-08-24T09:07:39;13.20;;;7.88;;
47749;SDS011;49810;48.160;10.812;2023-08-24T09:10:07;14.23;;;7.57;;
47749;SDS011;49810;48.160;10.812;2023-08-24T09:12:35;14.40;;;7.53;;
47749;SDS011;49810;48.160;10.812;2023-08-24T09:15:04;13.68;;;7.70;;
47749;SDS011;49810;48.160;10.812;2023-08-24T09:17:32;15.70;;;7.43;;
47749;SDS011;49810;48.160;10.812;2023-08-24T09:20:06;18.00;;;7.65;;
47749;SDS011;49810;48.160;10.812;2023-08-24T09:22:36;13.60;;;7.97;;
47749;SDS011;49810;48.160;10.812;2023-08-24T09:25:06;11.88;;;7.13;;
47749;SDS011;49810;48.160;10.812;2023-08-24T09:27:34;19.02;;;7.60;;
47749;SDS011;49810;48.160;10.812;2023-08-24T09:30:05;8.93;;;7.60;;
47749;SDS011;49810;48.160;10.812;2023-08-24T09:32:33;12.02;;;6.53;;
47749;SDS011;49810;48.160;10.812;2023-08-24T09:35:02;11.27;;;7.05;;
47749;SDS011;49810;48.160;10.812;2023-08-24T09:37:31;13.43;;;7.18;;
47749;SDS011;49810;48.160;10.812;2023-08-24T09:40:01;12.23;;;6.20;;
47749;SDS011;49810;48.160;10.812;2023-08-24T09:42:31;11.77;;;6.63;;
47749;SDS011;49810;48.160;10.812;2023-08-24T09:45:02;10.15;;;6.85;;
47749;SDS011;49810;48.160;10.812;2023-08-24T09:47:32;9.77;;;6.50;;
47749;SDS011;49810;48.160;10.812;2023-08-24T09:50:01;13.27;;;6.45;;
47749;SDS011;49810;48.160;10.812;2023-08-24T09:52:31;14.80;;;6.22;;
47749;SDS011;49810;48.160;10.812;2023-08-24T09:55:00;11.07;;;6.18;;
47749;SDS011;49810;48.160;10.812;2023-08-24T09:57:31;11.70;;;5.50;;
47749;SDS011;49810;48.160;10.812;2023-08-24T10:00:04;10.00;;;5.40;;
47749;SDS011;49810;48.160;10.812;2023-08-24T10:02:39;7.78;;;4.88;;
47749;SDS011;49810;48.160;10.812;2023-08-24T10:05:10;10.98;;;6.03;;
47749;SDS011;49810;48.160;10.812;2023-08-24T10:07:51;11.73;;;6.55;;
47749;SDS011;49810;48.160;10.812;2023-08-24T10:10:20;12.52;;;6.45;;
47749;SDS011;49810;48.160;10.812;2023-08-24T10:12:50;10.15;;;5.63;;
47749;SDS011;49810;48.160;10.812;2023-08-24T10:15:19;8.60;;;6.20;;
47749;SDS011;49810;48.160;10.812;2023-08-24T10:17:50;7.90;;;5.40;;
47749;SDS011;49810;48.160;10.812;2023-08-24T10:20:19;10.88;;;6.28;;
47749;SDS011;49810;48.160;10.812;2023-08-24T10:22:47;11.57;;;6.00;;
47749;SDS011;49810;48.160;10.812;2023-08-24T10:25:17;9.30;;;5.65;;
47749;SDS011;49810;48.160;10.812;2023-08-24T10:27:47;13.50;;;6.32;;
47749;SDS011;49810;48.160;10.812;2023-08-24T10:30:17;8.48;;;5.88;;
47749;SDS011;49810;48.160;10.812;2023-08-24T10:32:47;9.45;;;5.80;;
47749;SDS011;49810;48.160;10.812;2023-08-24T10:35:23;14.93;;;5.78;;
47749;SDS011;49810;48.160;10.812;2023-08-24T10:37:53;12.45;;;6.10;;
47749;SDS011;49810;48.160;10.812;2023-08-24T10:40:32;10.15;;;5.22;;
47749;SDS011;49810;48.160;10.812;2023-08-24T10:43:02;14.07;;;6.13;;
47749;SDS011;49810;48.160;10.812;2023-08-24T10:48:12;9.38;;;5.28;;
47749;SDS011;49810;48.160;10.812;2023-08-24T10:50:42;10.18;;;5.20;;
47749;SDS011;49810;48.160;10.812;2023-08-24T10:53:37;14.25;;;5.43;;
47749;SDS011;49810;48.160;10.812;2023-08-24T10:56:10;8.07;;;4.82;;
47749;SDS011;49810;48.160;10.812;2023-08-24T10:58:38;10.25;;;5.10;;
47749;SDS011;49810;48.160;10.812;2023-08-24T11:01:06;15.02;;;4.93;;
47749;SDS011;49810;48.160;10.812;2023-08-24T11:03:34;9.55;;;4.70;;
47749;SDS011;49810;48.160;10.812;2023-08-24T11:06:16;11.52;;;4.22;;
47749;SDS011;49810;48.160;10.812;2023-08-24T11:08:46;10.27;;;4.32;;
47749;SDS011;49810;48.160;10.812;2023-08-24T11:11:20;10.75;;;4.05;;
47749;SDS011;49810;48.160;10.812;2023-08-24T11:16:40;9.77;;;4.82;;
47749;SDS011;49810;48.160;10.812;2023-08-24T11:19:08;9.82;;;4.65;;
47749;SDS011;49810;48.160;10.812;2023-08-24T11:21:39;9.48;;;4.35;;
47749;SDS011;49810;48.160;10.812;2023-08-24T11:24:08;9.82;;;4.05;;
47749;SDS011;49810;48.160;10.812;2023-08-24T11:26:39;6.82;;;4.40;;
47749;SDS011;49810;48.160;10.812;2023-08-24T11:29:08;10.50;;;4.80;;
47749;SDS011;49810;48.160;10.812;2023-08-24T11:31:36;8.93;;;5.13;;
47749;SDS011;49810;48.160;10.812;2023-08-24T11:34:08;11.65;;;5.35;;
47749;SDS011;49810;48.160;10.812;2023-08-24T11:36:47;11.75;;;5.47;;
47749;SDS011;49810;48.160;10.812;2023-08-24T11:39:16;10.10;;;4.88;;
47749;SDS011;49810;48.160;10.812;2023-08-24T11:41:56;11.52;;;5.40;;
47749;SDS011;49810;48.160;10.812;2023-08-24T11:44:24;11.02;;;4.82;;
47749;SDS011;49810;48.160;10.812;2023-08-24T11:46:58;12.82;;;4.88;;
47749;SDS011;49810;48.160;10.812;2023-08-24T11:49:26;11.35;;;4.65;;
47749;SDS011;49810;48.160;10.812;2023-08-24T11:51:56;11.43;;;4.15;;
47749;SDS011;49810;48.160;10.812;2023-08-24T11:54:24;9.32;;;4.78;;
47749;SDS011;49810;48.160;10.812;2023-08-24T11:56:52;15.32;;;5.07;;
47749;SDS011;49810;48.160;10.812;2023-08-24T11:59:21;13.77;;;4.57;;
47749;SDS011;49810;48.160;10.812;2023-08-24T12:01:48;14.98;;;4.78;;
47749;SDS011;49810;48.160;10.812;2023-08-24T12:04:17;12.57;;;4.43;;
47749;SDS011;49810;48.160;10.812;2023-08-24T12:06:45;14.10;;;4.68;;
47749;SDS011;49810;48.160;10.812;2023-08-24T12:09:14;11.05;;;4.85;;
47749;SDS011;49810;48.160;10.812;2023-08-24T12:11:42;9.48;;;4.00;;
47749;SDS011;49810;48.160;10.812;2023-08-24T12:14:16;11.05;;;4.45;;
47749;SDS011;49810;48.160;10.812;2023-08-24T12:16:44;11.43;;;4.60;;
47749;SDS011;49810;48.160;10.812;2023-08-24T12:19:12;10.25;;;4.20;;
47749;SDS011;49810;48.160;10.812;2023-08-24T12:21:43;9.73;;;4.32;;
47749;SDS011;49810;48.160;10.812;2023-08-24T12:24:13;12.23;;;4.65;;
47749;SDS011;49810;48.160;10.812;2023-08-24T12:26:42;15.63;;;4.35;;
47749;SDS011;49810;48.160;10.812;2023-08-24T12:29:10;15.02;;;3.88;;
47749;SDS011;49810;48.160;10.812;2023-08-24T12:31:41;11.13;;;4.07;;
47749;SDS011;49810;48.160;10.812;2023-08-24T12:34:09;11.93;;;4.13;;
47749;SDS011;49810;48.160;10.812;2023-08-24T12:36:38;14.10;;;5.32;;
47749;SDS011;49810;48.160;10.812;2023-08-24T12:39:09;12.13;;;4.50;;
47749;SDS011;49810;48.160;10.812;2023-08-24T12:41:39;8.00;;;4.30;;
47749;SDS011;49810;48.160;10.812;2023-08-24T12:44:08;11.23;;;4.18;;
47749;SDS011;49810;48.160;10.812;2023-08-24T12:49:08;11.68;;;4.00;;
47749;SDS011;49810;48.160;10.812;2023-08-24T12:51:36;11.18;;;4.50;;
47749;SDS011;49810;48.160;10.812;2023-08-24T12:54:06;9.18;;;4.10;;
47749;SDS011;49810;48.160;10.812;2023-08-24T12:56:37;9.38;;;3.90;;
47749;SDS011;49810;48.160;10.812;2023-08-24T12:59:09;11.43;;;4.07;;
47749;SDS011;49810;48.160;10.812;2023-08-24T13:01:38;11.48;;;4.10;;
47749;SDS011;49810;48.160;10.812;2023-08-24T13:04:08;15.07;;;4.35;;
47749;SDS011;49810;48.160;10.812;2023-08-24T13:06:35;9.70;;;4.13;;
47749;SDS011;49810;48.160;10.812;2023-08-24T13:09:04;12.65;;;4.28;;
47749;SDS011;49810;48.160;10.812;2023-08-24T13:11:32;13.75;;;4.60;;
47749;SDS011;49810;48.160;10.812;2023-08-24T13:14:00;13.82;;;4.43;;
47749;SDS011;49810;48.160;10.812;2023-08-24T13:16:30;14.10;;;4.75;;
47749;SDS011;49810;48.160;10.812;2023-08-24T13:18:59;14.75;;;4.50;;
47749;SDS011;49810;48.160;10.812;2023-08-24T13:21:29;13.60;;;4.45;;
47749;SDS011;49810;48.160;10.812;2023-08-24T13:23:57;13.05;;;4.03;;
47749;SDS011;49810;48.160;10.812;2023-08-24T13:26:27;10.93;;;4.00;;
47749;SDS011;49810;48.160;10.812;2023-08-24T13:28:55;14.93;;;4.45;;
47749;SDS011;49810;48.160;10.812;2023-08-24T13:31:23;13.50;;;4.15;;
47749;SDS011;49810;48.160;10.812;2023-08-24T13:33:52;12.07;;;4.03;;
47749;SDS011;49810;48.160;10.812;2023-08-24T13:36:20;12.80;;;4.22;;
47749;SDS011;49810;48.160;10.812;2023-08-24T13:38:49;13.02;;;4.35;;
47749;SDS011;49810;48.160;10.812;2023-08-24T13:41:17;17.25;;;4.93;;
47749;SDS011;49810;48.160;10.812;2023-08-24T13:43:45;17.55;;;4.63;;
47749;SDS011;49810;48.160;10.812;2023-08-24T13:46:12;15.05;;;5.00;;
47749;SDS011;49810;48.160;10.812;2023-08-24T13:48:40;17.15;;;4.82;;
47749;SDS011;49810;48.160;10.812;2023-08-24T13:51:10;11.70;;;4.25;;
47749;SDS011;49810;48.160;10.812;2023-08-24T13:53:40;15.10;;;4.45;;
47749;SDS011;49810;48.160;10.812;2023-08-24T13:56:08;13.07;;;4.10;;
47749;SDS011;49810;48.160;10.812;2023-08-24T13:58:38;11.85;;;4.30;;
47749;SDS011;49810;48.160;10.812;2023-08-24T14:01:05;11.48;;;4.40;;
47749;SDS011;49810;48.160;10.812;2023-08-24T14:03:34;14.52;;;4.30;;
47749;SDS011;49810;48.160;10.812;2023-08-24T14:06:02;13.60;;;4.20;;
47749;SDS011;49810;48.160;10.812;2023-08-24T14:08:33;14.63;;;4.30;;
47749;SDS011;49810;48.160;10.812;2023-08-24T14:11:03;14.65;;;4.60;;
47749;SDS011;49810;48.160;10.812;2023-08-24T14:13:30;17.98;;;5.25;;
47749;SDS011;49810;48.160;10.812;2023-08-24T14:15:58;13.50;;;4.40;;
47749;SDS011;49810;48.160;10.812;2023-08-24T14:18:26;14.95;;;4.13;;
47749;SDS011;49810;48.160;10.812;2023-08-24T14:20:55;12.45;;;4.93;;
47749;SDS011;49810;48.160;10.812;2023-08-24T14:23:22;12.57;;;4.32;;
47749;SDS011;49810;48.160;10.812;2023-08-24T14:25:52;12.52;;;4.03;;
47749;SDS011;49810;48.160;10.812;2023-08-24T14:28:20;8.93;;;4.20;;
47749;SDS011;49810;48.160;10.812;2023-08-24T14:30:49;13.38;;;4.68;;
47749;SDS011;49810;48.160;10.812;2023-08-24T14:33:16;18.02;;;4.32;;
47749;SDS011;49810;48.160;10.812;2023-08-24T14:35:51;13.00;;;4.25;;
47749;SDS011;49810;48.160;10.812;2023-08-24T14:38:19;13.20;;;4.43;;
47749;SDS011;49810;48.160;10.812;2023-08-24T14:40:47;14.65;;;4.80;;